sensor_id;sensor_type;location;lat;lon;timestamp;P1;durP1;ratioP1;P2;durP2;ratioP2
21820;SDS011;11073;48.586;12.066;2022-12-07T00:01:44;7.70;;;6.20;;
21820;SDS011;11073;48.586;12.066;2022-12-07T00:04:16;7.60;;;6.50;;
21820;SDS011;11073;48.586;12.066;2022-12-07T00:06:46;6.70;;;6.00;;
21820;SDS011;11073;48.586;12.066;2022-12-07T00:09:19;7.10;;;6.00;;
21820;SDS011;11073;48.586;12.066;2022-12-07T00:11:49;8.27;;;6.50;;
21820;SDS011;11073;48.586;12.066;2022-12-07T00:14:19;7.67;;;5.90;;
21820;SDS011;11073;48.586;12.066;2022-12-07T00:16:49;7.13;;;5.93;;
21820;SDS011;11073;48.586;12.066;2022-12-07T00:19:20;7.73;;;5.63;;
21820;SDS011;11073;48.586;12.066;2022-12-07T00:21:49;9.13;;;6.57;;
21820;SDS011;11073;48.586;12.066;2022-12-07T00:24:18;10.00;;;6.67;;
21820;SDS011;11073;48.586;12.066;2022-12-07T00:26:47;8.53;;;6.53;;
21820;SDS011;11073;48.586;12.066;2022-12-07T00:29:16;8.70;;;6.83;;
21820;SDS011;11073;48.586;12.066;2022-12-07T00:31:46;7.83;;;6.53;;
21820;SDS011;11073;48.586;12.066;2022-12-07T00:34:16;7.90;;;7.00;;
21820;SDS011;11073;48.586;12.066;2022-12-07T00:36:49;9.63;;;7.23;;
21820;SDS011;11073;48.586;12.066;2022-12-07T00:39:18;8.43;;;6.37;;
21820;SDS011;11073;48.586;12.066;2022-12-07T00:41:46;10.33;;;7.00;;
21820;SDS011;11073;48.586;12.066;2022-12-07T00:44:15;8.07;;;6.77;;
21820;SDS011;11073;48.586;12.066;2022-12-07T00:46:44;7.67;;;6.20;;
21820;SDS011;11073;48.586;12.066;2022-12-07T00:49:13;7.63;;;6.50;;
21820;SDS011;11073;48.586;12.066;2022-12-07T00:51:42;8.20;;;6.93;;
21820;SDS011;11073;48.586;12.066;2022-12-07T00:54:12;8.00;;;7.03;;
21820;SDS011;11073;48.586;12.066;2022-12-07T00:56:41;8.60;;;6.00;;
21820;SDS011;11073;48.586;12.066;2022-12-07T00:59:10;7.70;;;6.50;;
21820;SDS011;11073;48.586;12.066;2022-12-07T01:01:42;8.40;;;7.00;;
21820;SDS011;11073;48.586;12.066;2022-12-07T01:04:11;8.00;;;6.53;;
21820;SDS011;11073;48.586;12.066;2022-12-07T01:06:40;7.87;;;6.57;;
21820;SDS011;11073;48.586;12.066;2022-12-07T01:09:09;7.63;;;6.67;;
21820;SDS011;11073;48.586;12.066;2022-12-07T01:11:38;7.43;;;6.20;;
21820;SDS011;11073;48.586;12.066;2022-12-07T01:14:08;7.57;;;6.60;;
21820;SDS011;11073;48.586;12.066;2022-12-07T01:16:38;9.47;;;6.93;;
21820;SDS011;11073;48.586;12.066;2022-12-07T01:19:07;8.63;;;6.87;;
21820;SDS011;11073;48.586;12.066;2022-12-07T01:21:36;7.47;;;6.27;;
21820;SDS011;11073;48.586;12.066;2022-12-07T01:24:07;7.93;;;7.00;;
21820;SDS011;11073;48.586;12.066;2022-12-07T01:26:39;9.60;;;7.37;;
21820;SDS011;11073;48.586;12.066;2022-12-07T01:29:08;9.33;;;7.93;;
21820;SDS011;11073;48.586;12.066;2022-12-07T01:31:37;9.67;;;7.70;;
21820;SDS011;11073;48.586;12.066;2022-12-07T01:34:06;8.93;;;7.60;;
21820;SDS011;11073;48.586;12.066;2022-12-07T01:36:38;9.37;;;7.23;;
21820;SDS011;11073;48.586;12.066;2022-12-07T01:39:08;10.67;;;7.87;;
21820;SDS011;11073;48.586;12.066;2022-12-07T01:41:40;10.30;;;8.33;;
21820;SDS011;11073;48.586;12.066;2022-12-07T01:44:12;11.83;;;9.00;;
21820;SDS011;11073;48.586;12.066;2022-12-07T01:46:44;10.13;;;8.60;;
21820;SDS011;11073;48.586;12.066;2022-12-07T01:49:15;10.87;;;8.60;;
21820;SDS011;11073;48.586;12.066;2022-12-07T01:51:49;11.37;;;9.30;;
21820;SDS011;11073;48.586;12.066;2022-12-07T01:54:20;9.87;;;8.50;;
21820;SDS011;11073;48.586;12.066;2022-12-07T01:56:52;11.70;;;9.40;;
21820;SDS011;11073;48.586;12.066;2022-12-07T01:59:24;10.70;;;9.07;;
21820;SDS011;11073;48.586;12.066;2022-12-07T02:01:54;10.60;;;8.80;;
21820;SDS011;11073;48.586;12.066;2022-12-07T02:04:24;9.80;;;8.57;;
21820;SDS011;11073;48.586;12.066;2022-12-07T02:06:53;10.63;;;8.77;;
21820;SDS011;11073;48.586;12.066;2022-12-07T02:09:23;9.93;;;8.23;;
21820;SDS011;11073;48.586;12.066;2022-12-07T02:11:53;12.57;;;9.47;;
21820;SDS011;11073;48.586;12.066;2022-12-07T02:14:23;11.53;;;9.30;;
21820;SDS011;11073;48.586;12.066;2022-12-07T02:16:56;11.50;;;8.70;;
21820;SDS011;11073;48.586;12.066;2022-12-07T02:19:44;11.23;;;9.10;;
21820;SDS011;11073;48.586;12.066;2022-12-07T02:25:52;11.63;;;9.50;;
21820;SDS011;11073;48.586;12.066;2022-12-07T02:28:46;10.67;;;9.07;;
21820;SDS011;11073;48.586;12.066;2022-12-07T02:31:24;11.53;;;8.70;;
21820;SDS011;11073;48.586;12.066;2022-12-07T02:33:57;11.90;;;9.20;;
21820;SDS011;11073;48.586;12.066;2022-12-07T02:36:34;10.37;;;8.63;;
21820;SDS011;11073;48.586;12.066;2022-12-07T02:39:08;12.73;;;9.33;;
21820;SDS011;11073;48.586;12.066;2022-12-07T02:41:44;10.87;;;9.00;;
21820;SDS011;11073;48.586;12.066;2022-12-07T02:44:20;10.70;;;9.03;;
21820;SDS011;11073;48.586;12.066;2022-12-07T02:46:52;10.47;;;8.90;;
21820;SDS011;11073;48.586;12.066;2022-12-07T02:49:23;11.83;;;9.13;;
21820;SDS011;11073;48.586;12.066;2022-12-07T02:51:54;10.87;;;8.40;;
21820;SDS011;11073;48.586;12.066;2022-12-07T02:54:23;13.10;;;9.83;;
21820;SDS011;11073;48.586;12.066;2022-12-07T02:56:53;10.83;;;9.07;;
21820;SDS011;11073;48.586;12.066;2022-12-07T02:59:34;10.87;;;9.03;;
21820;SDS011;11073;48.586;12.066;2022-12-07T03:02:17;12.10;;;9.63;;
21820;SDS011;11073;48.586;12.066;2022-12-07T03:04:52;11.60;;;9.70;;
21820;SDS011;11073;48.586;12.066;2022-12-07T03:07:34;11.67;;;9.00;;
21820;SDS011;11073;48.586;12.066;2022-12-07T03:10:13;11.93;;;9.67;;
21820;SDS011;11073;48.586;12.066;2022-12-07T03:12:48;11.60;;;9.33;;
21820;SDS011;11073;48.586;12.066;2022-12-07T03:15:29;11.50;;;9.50;;
21820;SDS011;11073;48.586;12.066;2022-12-07T03:18:02;12.17;;;9.53;;
21820;SDS011;11073;48.586;12.066;2022-12-07T03:20:33;11.07;;;9.30;;
21820;SDS011;11073;48.586;12.066;2022-12-07T03:23:05;11.60;;;9.60;;
21820;SDS011;11073;48.586;12.066;2022-12-07T03:25:38;11.47;;;9.60;;
21820;SDS011;11073;48.586;12.066;2022-12-07T03:28:09;11.73;;;9.97;;
21820;SDS011;11073;48.586;12.066;2022-12-07T03:30:42;12.10;;;10.30;;
21820;SDS011;11073;48.586;12.066;2022-12-07T03:33:17;14.20;;;10.80;;
21820;SDS011;11073;48.586;12.066;2022-12-07T03:35:51;12.53;;;10.40;;
21820;SDS011;11073;48.586;12.066;2022-12-07T03:38:27;11.70;;;9.53;;
21820;SDS011;11073;48.586;12.066;2022-12-07T03:41:02;11.57;;;9.67;;
21820;SDS011;11073;48.586;12.066;2022-12-07T03:43:36;15.97;;;10.47;;
21820;SDS011;11073;48.586;12.066;2022-12-07T03:46:09;12.10;;;10.27;;
21820;SDS011;11073;48.586;12.066;2022-12-07T03:48:51;12.60;;;10.37;;
21820;SDS011;11073;48.586;12.066;2022-12-07T03:51:26;13.33;;;10.40;;
21820;SDS011;11073;48.586;12.066;2022-12-07T03:54:05;11.93;;;10.33;;
21820;SDS011;11073;48.586;12.066;2022-12-07T03:56:39;12.83;;;10.93;;
21820;SDS011;11073;48.586;12.066;2022-12-07T03:59:08;13.50;;;11.00;;
21820;SDS011;11073;48.586;12.066;2022-12-07T04:01:42;14.13;;;11.60;;
21820;SDS011;11073;48.586;12.066;2022-12-07T04:04:11;12.57;;;10.87;;
21820;SDS011;11073;48.586;12.066;2022-12-07T04:06:40;12.97;;;10.90;;
21820;SDS011;11073;48.586;12.066;2022-12-07T04:09:09;13.67;;;11.27;;
21820;SDS011;11073;48.586;12.066;2022-12-07T04:11:38;15.33;;;11.23;;
21820;SDS011;11073;48.586;12.066;2022-12-07T04:14:06;13.40;;;11.60;;
21820;SDS011;11073;48.586;12.066;2022-12-07T04:16:49;14.47;;;11.33;;
21820;SDS011;11073;48.586;12.066;2022-12-07T04:19:20;15.60;;;12.00;;
21820;SDS011;11073;48.586;12.066;2022-12-07T04:21:49;15.83;;;12.43;;
21820;SDS011;11073;48.586;12.066;2022-12-07T04:24:18;16.43;;;11.73;;
21820;SDS011;11073;48.586;12.066;2022-12-07T04:26:48;15.63;;;12.77;;
21820;SDS011;11073;48.586;12.066;2022-12-07T04:29:17;15.03;;;12.00;;
21820;SDS011;11073;48.586;12.066;2022-12-07T04:31:46;18.27;;;12.57;;
21820;SDS011;11073;48.586;12.066;2022-12-07T04:34:17;15.30;;;11.70;;
21820;SDS011;11073;48.586;12.066;2022-12-07T04:36:47;16.83;;;12.80;;
21820;SDS011;11073;48.586;12.066;2022-12-07T04:39:18;15.67;;;12.17;;
21820;SDS011;11073;48.586;12.066;2022-12-07T04:41:49;14.53;;;11.40;;
21820;SDS011;11073;48.586;12.066;2022-12-07T04:44:18;15.37;;;12.27;;
21820;SDS011;11073;48.586;12.066;2022-12-07T04:46:48;16.30;;;12.60;;
21820;SDS011;11073;48.586;12.066;2022-12-07T04:49:18;16.90;;;13.07;;
21820;SDS011;11073;48.586;12.066;2022-12-07T04:51:47;17.03;;;12.57;;
21820;SDS011;11073;48.586;12.066;2022-12-07T04:54:17;15.80;;;12.63;;
21820;SDS011;11073;48.586;12.066;2022-12-07T04:56:46;17.23;;;12.97;;
21820;SDS011;11073;48.586;12.066;2022-12-07T04:59:15;17.30;;;13.10;;
21820;SDS011;11073;48.586;12.066;2022-12-07T05:01:44;16.60;;;12.63;;
21820;SDS011;11073;48.586;12.066;2022-12-07T05:04:15;18.53;;;13.63;;
21820;SDS011;11073;48.586;12.066;2022-12-07T05:06:44;16.43;;;12.77;;
21820;SDS011;11073;48.586;12.066;2022-12-07T05:09:13;16.87;;;13.13;;
21820;SDS011;11073;48.586;12.066;2022-12-07T05:11:42;17.40;;;13.07;;
21820;SDS011;11073;48.586;12.066;2022-12-07T05:14:12;16.63;;;12.83;;
21820;SDS011;11073;48.586;12.066;2022-12-07T05:16:42;19.77;;;14.10;;
21820;SDS011;11073;48.586;12.066;2022-12-07T05:19:12;17.27;;;13.83;;
21820;SDS011;11073;48.586;12.066;2022-12-07T05:21:43;18.23;;;13.33;;
21820;SDS011;11073;48.586;12.066;2022-12-07T05:24:12;17.27;;;13.40;;
21820;SDS011;11073;48.586;12.066;2022-12-07T05:26:42;18.00;;;14.03;;
21820;SDS011;11073;48.586;12.066;2022-12-07T05:29:12;20.23;;;14.10;;
21820;SDS011;11073;48.586;12.066;2022-12-07T05:31:42;19.23;;;14.17;;
21820;SDS011;11073;48.586;12.066;2022-12-07T05:34:12;18.97;;;14.20;;
21820;SDS011;11073;48.586;12.066;2022-12-07T05:36:42;20.93;;;14.70;;
21820;SDS011;11073;48.586;12.066;2022-12-07T05:39:11;18.63;;;14.03;;
21820;SDS011;11073;48.586;12.066;2022-12-07T05:41:40;18.17;;;13.87;;
21820;SDS011;11073;48.586;12.066;2022-12-07T05:44:27;17.33;;;13.63;;
21820;SDS011;11073;48.586;12.066;2022-12-07T05:46:56;19.83;;;14.20;;
21820;SDS011;11073;48.586;12.066;2022-12-07T05:49:25;19.63;;;14.03;;
21820;SDS011;11073;48.586;12.066;2022-12-07T05:51:55;21.00;;;15.43;;
21820;SDS011;11073;48.586;12.066;2022-12-07T05:54:24;18.03;;;13.70;;
21820;SDS011;11073;48.586;12.066;2022-12-07T05:56:53;19.70;;;15.43;;
21820;SDS011;11073;48.586;12.066;2022-12-07T05:59:22;21.03;;;14.33;;
21820;SDS011;11073;48.586;12.066;2022-12-07T06:01:51;18.50;;;14.10;;
21820;SDS011;11073;48.586;12.066;2022-12-07T06:04:21;19.53;;;15.77;;
21820;SDS011;11073;48.586;12.066;2022-12-07T06:06:52;18.70;;;14.33;;
21820;SDS011;11073;48.586;12.066;2022-12-07T06:09:22;18.87;;;14.73;;
21820;SDS011;11073;48.586;12.066;2022-12-07T06:11:52;19.10;;;14.50;;
21820;SDS011;11073;48.586;12.066;2022-12-07T06:14:38;20.67;;;14.77;;
21820;SDS011;11073;48.586;12.066;2022-12-07T06:17:08;22.57;;;16.67;;
21820;SDS011;11073;48.586;12.066;2022-12-07T06:19:37;21.00;;;15.70;;
21820;SDS011;11073;48.586;12.066;2022-12-07T06:22:06;21.50;;;15.47;;
21820;SDS011;11073;48.586;12.066;2022-12-07T06:24:38;28.07;;;20.10;;
21820;SDS011;11073;48.586;12.066;2022-12-07T06:27:08;26.57;;;19.23;;
21820;SDS011;11073;48.586;12.066;2022-12-07T06:29:37;30.00;;;21.23;;
21820;SDS011;11073;48.586;12.066;2022-12-07T06:32:06;24.87;;;18.23;;
21820;SDS011;11073;48.586;12.066;2022-12-07T06:34:35;38.13;;;24.03;;
21820;SDS011;11073;48.586;12.066;2022-12-07T06:37:03;32.27;;;21.93;;
21820;SDS011;11073;48.586;12.066;2022-12-07T06:39:32;37.07;;;24.33;;
21820;SDS011;11073;48.586;12.066;2022-12-07T06:42:02;28.20;;;19.47;;
21820;SDS011;11073;48.586;12.066;2022-12-07T06:44:31;25.03;;;17.87;;
21820;SDS011;11073;48.586;12.066;2022-12-07T06:47:00;24.97;;;17.87;;
21820;SDS011;11073;48.586;12.066;2022-12-07T06:49:49;25.40;;;17.20;;
21820;SDS011;11073;48.586;12.066;2022-12-07T06:52:18;22.73;;;16.50;;
21820;SDS011;11073;48.586;12.066;2022-12-07T06:54:46;26.70;;;18.50;;
21820;SDS011;11073;48.586;12.066;2022-12-07T06:57:16;25.90;;;17.93;;
21820;SDS011;11073;48.586;12.066;2022-12-07T06:59:47;24.80;;;18.30;;
21820;SDS011;11073;48.586;12.066;2022-12-07T07:02:16;24.30;;;16.17;;
21820;SDS011;11073;48.586;12.066;2022-12-07T07:04:45;21.87;;;15.70;;
21820;SDS011;11073;48.586;12.066;2022-12-07T07:07:14;26.17;;;18.20;;
21820;SDS011;11073;48.586;12.066;2022-12-07T07:09:43;24.00;;;17.47;;
21820;SDS011;11073;48.586;12.066;2022-12-07T07:12:11;24.00;;;17.07;;
21820;SDS011;11073;48.586;12.066;2022-12-07T07:14:41;22.10;;;16.10;;
21820;SDS011;11073;48.586;12.066;2022-12-07T07:17:10;22.10;;;16.03;;
21820;SDS011;11073;48.586;12.066;2022-12-07T07:19:39;23.63;;;16.87;;
21820;SDS011;11073;48.586;12.066;2022-12-07T07:22:08;23.50;;;16.53;;
21820;SDS011;11073;48.586;12.066;2022-12-07T07:24:37;41.43;;;26.83;;
21820;SDS011;11073;48.586;12.066;2022-12-07T07:27:05;36.73;;;25.10;;
21820;SDS011;11073;48.586;12.066;2022-12-07T07:29:34;27.77;;;18.03;;
21820;SDS011;11073;48.586;12.066;2022-12-07T07:32:04;25.63;;;18.07;;
21820;SDS011;11073;48.586;12.066;2022-12-07T07:34:34;30.27;;;20.20;;
21820;SDS011;11073;48.586;12.066;2022-12-07T07:37:03;25.43;;;18.17;;
21820;SDS011;11073;48.586;12.066;2022-12-07T07:39:32;29.87;;;21.83;;
21820;SDS011;11073;48.586;12.066;2022-12-07T07:42:00;27.17;;;19.23;;
21820;SDS011;11073;48.586;12.066;2022-12-07T07:44:32;25.00;;;18.03;;
21820;SDS011;11073;48.586;12.066;2022-12-07T07:47:02;27.07;;;19.00;;
21820;SDS011;11073;48.586;12.066;2022-12-07T07:49:32;22.97;;;16.30;;
21820;SDS011;11073;48.586;12.066;2022-12-07T07:52:01;19.93;;;14.53;;
21820;SDS011;11073;48.586;12.066;2022-12-07T07:54:31;21.43;;;15.57;;
21820;SDS011;11073;48.586;12.066;2022-12-07T07:56:59;21.93;;;15.97;;
21820;SDS011;11073;48.586;12.066;2022-12-07T07:59:28;21.00;;;14.30;;
21820;SDS011;11073;48.586;12.066;2022-12-07T08:01:56;21.77;;;14.83;;
21820;SDS011;11073;48.586;12.066;2022-12-07T08:04:26;19.20;;;14.90;;
21820;SDS011;11073;48.586;12.066;2022-12-07T08:06:56;20.57;;;13.97;;
21820;SDS011;11073;48.586;12.066;2022-12-07T08:09:25;19.93;;;14.60;;
21820;SDS011;11073;48.586;12.066;2022-12-07T08:11:54;19.77;;;15.17;;
21820;SDS011;11073;48.586;12.066;2022-12-07T08:14:23;21.37;;;15.70;;
21820;SDS011;11073;48.586;12.066;2022-12-07T08:16:53;19.67;;;14.37;;
21820;SDS011;11073;48.586;12.066;2022-12-07T08:19:22;20.40;;;13.53;;
21820;SDS011;11073;48.586;12.066;2022-12-07T08:21:50;19.97;;;15.00;;
21820;SDS011;11073;48.586;12.066;2022-12-07T08:24:21;18.07;;;13.67;;
21820;SDS011;11073;48.586;12.066;2022-12-07T08:26:50;18.87;;;14.37;;
21820;SDS011;11073;48.586;12.066;2022-12-07T08:29:19;17.63;;;13.93;;
21820;SDS011;11073;48.586;12.066;2022-12-07T08:31:48;19.17;;;14.10;;
21820;SDS011;11073;48.586;12.066;2022-12-07T08:34:17;21.10;;;14.97;;
21820;SDS011;11073;48.586;12.066;2022-12-07T08:36:46;20.47;;;14.43;;
21820;SDS011;11073;48.586;12.066;2022-12-07T08:39:14;21.73;;;15.33;;
21820;SDS011;11073;48.586;12.066;2022-12-07T08:41:59;19.30;;;14.63;;
21820;SDS011;11073;48.586;12.066;2022-12-07T08:44:28;21.77;;;16.57;;
21820;SDS011;11073;48.586;12.066;2022-12-07T08:46:58;17.53;;;13.67;;
21820;SDS011;11073;48.586;12.066;2022-12-07T08:49:30;19.73;;;13.73;;
21820;SDS011;11073;48.586;12.066;2022-12-07T08:52:02;17.10;;;13.50;;
21820;SDS011;11073;48.586;12.066;2022-12-07T08:54:33;21.60;;;16.80;;
21820;SDS011;11073;48.586;12.066;2022-12-07T08:57:05;18.30;;;13.67;;
21820;SDS011;11073;48.586;12.066;2022-12-07T08:59:35;18.17;;;12.60;;
21820;SDS011;11073;48.586;12.066;2022-12-07T09:02:05;20.53;;;13.67;;
21820;SDS011;11073;48.586;12.066;2022-12-07T09:04:34;17.57;;;13.83;;
21820;SDS011;11073;48.586;12.066;2022-12-07T09:07:03;18.33;;;13.60;;
21820;SDS011;11073;48.586;12.066;2022-12-07T09:09:32;15.83;;;11.90;;
21820;SDS011;11073;48.586;12.066;2022-12-07T09:12:00;17.20;;;13.53;;
21820;SDS011;11073;48.586;12.066;2022-12-07T09:14:30;14.93;;;11.23;;
21820;SDS011;11073;48.586;12.066;2022-12-07T09:17:04;14.17;;;12.13;;
21820;SDS011;11073;48.586;12.066;2022-12-07T09:19:34;15.40;;;11.60;;
21820;SDS011;11073;48.586;12.066;2022-12-07T09:22:03;16.40;;;12.83;;
21820;SDS011;11073;48.586;12.066;2022-12-07T09:24:32;14.17;;;10.97;;
21820;SDS011;11073;48.586;12.066;2022-12-07T09:27:01;14.07;;;11.50;;
21820;SDS011;11073;48.586;12.066;2022-12-07T09:29:31;13.90;;;10.80;;
21820;SDS011;11073;48.586;12.066;2022-12-07T09:31:59;13.00;;;11.03;;
21820;SDS011;11073;48.586;12.066;2022-12-07T09:34:36;13.77;;;10.70;;
21820;SDS011;11073;48.586;12.066;2022-12-07T09:37:05;16.03;;;10.77;;
21820;SDS011;11073;48.586;12.066;2022-12-07T09:39:34;16.07;;;12.17;;
21820;SDS011;11073;48.586;12.066;2022-12-07T09:42:15;15.73;;;12.20;;
21820;SDS011;11073;48.586;12.066;2022-12-07T09:44:56;15.33;;;11.63;;
21820;SDS011;11073;48.586;12.066;2022-12-07T09:47:25;16.67;;;12.30;;
21820;SDS011;11073;48.586;12.066;2022-12-07T09:49:58;14.87;;;11.33;;
21820;SDS011;11073;48.586;12.066;2022-12-07T09:52:32;14.33;;;11.07;;
21820;SDS011;11073;48.586;12.066;2022-12-07T09:55:09;15.97;;;11.63;;
21820;SDS011;11073;48.586;12.066;2022-12-07T09:57:40;22.23;;;15.03;;
21820;SDS011;11073;48.586;12.066;2022-12-07T10:00:13;17.63;;;12.27;;
21820;SDS011;11073;48.586;12.066;2022-12-07T10:02:44;15.10;;;10.87;;
21820;SDS011;11073;48.586;12.066;2022-12-07T10:05:16;13.97;;;10.63;;
21820;SDS011;11073;48.586;12.066;2022-12-07T10:07:50;15.13;;;11.27;;
21820;SDS011;11073;48.586;12.066;2022-12-07T10:10:23;15.90;;;12.10;;
21820;SDS011;11073;48.586;12.066;2022-12-07T10:12:57;16.03;;;10.83;;
21820;SDS011;11073;48.586;12.066;2022-12-07T10:15:46;16.17;;;12.43;;
21820;SDS011;11073;48.586;12.066;2022-12-07T10:18:27;16.13;;;11.83;;
21820;SDS011;11073;48.586;12.066;2022-12-07T10:23:59;18.53;;;13.57;;
21820;SDS011;11073;48.586;12.066;2022-12-07T10:26:30;22.83;;;12.73;;
21820;SDS011;11073;48.586;12.066;2022-12-07T10:29:02;19.47;;;13.97;;
21820;SDS011;11073;48.586;12.066;2022-12-07T10:31:45;20.10;;;13.30;;
21820;SDS011;11073;48.586;12.066;2022-12-07T10:34:20;16.73;;;12.20;;
21820;SDS011;11073;48.586;12.066;2022-12-07T10:36:52;18.70;;;12.77;;
21820;SDS011;11073;48.586;12.066;2022-12-07T10:39:22;16.73;;;11.43;;
21820;SDS011;11073;48.586;12.066;2022-12-07T10:41:55;16.80;;;12.10;;
21820;SDS011;11073;48.586;12.066;2022-12-07T10:44:26;13.30;;;10.97;;
21820;SDS011;11073;48.586;12.066;2022-12-07T10:47:00;13.37;;;10.67;;
21820;SDS011;11073;48.586;12.066;2022-12-07T10:49:48;14.13;;;11.00;;
21820;SDS011;11073;48.586;12.066;2022-12-07T10:55:41;13.27;;;10.50;;
21820;SDS011;11073;48.586;12.066;2022-12-07T10:58:30;15.10;;;11.07;;
21820;SDS011;11073;48.586;12.066;2022-12-07T11:01:07;12.67;;;10.17;;
21820;SDS011;11073;48.586;12.066;2022-12-07T11:03:49;13.93;;;10.80;;
21820;SDS011;11073;48.586;12.066;2022-12-07T11:06:33;15.00;;;12.17;;
21820;SDS011;11073;48.586;12.066;2022-12-07T11:09:15;16.17;;;11.03;;
21820;SDS011;11073;48.586;12.066;2022-12-07T11:12:25;13.20;;;10.60;;
21820;SDS011;11073;48.586;12.066;2022-12-07T11:15:09;13.97;;;10.50;;
21820;SDS011;11073;48.586;12.066;2022-12-07T11:17:45;14.57;;;10.47;;
21820;SDS011;11073;48.586;12.066;2022-12-07T11:20:28;14.53;;;10.53;;
21820;SDS011;11073;48.586;12.066;2022-12-07T11:23:09;13.03;;;10.13;;
21820;SDS011;11073;48.586;12.066;2022-12-07T11:25:47;13.17;;;10.47;;
21820;SDS011;11073;48.586;12.066;2022-12-07T11:28:25;13.60;;;8.97;;
21820;SDS011;11073;48.586;12.066;2022-12-07T11:31:06;10.10;;;7.87;;
21820;SDS011;11073;48.586;12.066;2022-12-07T11:33:43;9.83;;;7.47;;
21820;SDS011;11073;48.586;12.066;2022-12-07T11:36:22;10.30;;;7.60;;
21820;SDS011;11073;48.586;12.066;2022-12-07T11:39:08;11.03;;;7.33;;
21820;SDS011;11073;48.586;12.066;2022-12-07T11:41:55;10.47;;;8.13;;
21820;SDS011;11073;48.586;12.066;2022-12-07T11:44:31;11.67;;;8.53;;
21820;SDS011;11073;48.586;12.066;2022-12-07T11:47:05;10.63;;;7.60;;
21820;SDS011;11073;48.586;12.066;2022-12-07T11:49:40;13.53;;;8.03;;
21820;SDS011;11073;48.586;12.066;2022-12-07T11:52:16;12.37;;;8.27;;
21820;SDS011;11073;48.586;12.066;2022-12-07T11:54:51;11.63;;;8.50;;
21820;SDS011;11073;48.586;12.066;2022-12-07T11:57:24;18.40;;;11.00;;
21820;SDS011;11073;48.586;12.066;2022-12-07T11:59:59;15.10;;;11.30;;
21820;SDS011;11073;48.586;12.066;2022-12-07T12:02:32;12.10;;;8.73;;
21820;SDS011;11073;48.586;12.066;2022-12-07T12:05:11;11.20;;;8.13;;
21820;SDS011;11073;48.586;12.066;2022-12-07T12:07:46;12.40;;;8.83;;
21820;SDS011;11073;48.586;12.066;2022-12-07T12:10:44;9.87;;;7.57;;
21820;SDS011;11073;48.586;12.066;2022-12-07T12:13:27;11.70;;;8.57;;
21820;SDS011;11073;48.586;12.066;2022-12-07T12:16:39;11.93;;;7.50;;
21820;SDS011;11073;48.586;12.066;2022-12-07T12:19:28;10.70;;;7.97;;
21820;SDS011;11073;48.586;12.066;2022-12-07T12:22:05;13.93;;;9.20;;
21820;SDS011;11073;48.586;12.066;2022-12-07T12:24:42;11.77;;;8.47;;
21820;SDS011;11073;48.586;12.066;2022-12-07T12:27:21;11.60;;;7.93;;
21820;SDS011;11073;48.586;12.066;2022-12-07T12:29:54;8.90;;;7.03;;
21820;SDS011;11073;48.586;12.066;2022-12-07T12:32:29;16.23;;;9.97;;
21820;SDS011;11073;48.586;12.066;2022-12-07T12:40:56;12.60;;;8.43;;
21820;SDS011;11073;48.586;12.066;2022-12-07T12:43:45;11.73;;;8.53;;
21820;SDS011;11073;48.586;12.066;2022-12-07T12:46:37;12.73;;;7.80;;
21820;SDS011;11073;48.586;12.066;2022-12-07T12:58:39;14.73;;;7.97;;
21820;SDS011;11073;48.586;12.066;2022-12-07T13:07:11;11.43;;;7.67;;
21820;SDS011;11073;48.586;12.066;2022-12-07T13:10:01;11.97;;;7.60;;
21820;SDS011;11073;48.586;12.066;2022-12-07T13:12:31;12.07;;;8.27;;
21820;SDS011;11073;48.586;12.066;2022-12-07T13:15:01;13.43;;;8.60;;
21820;SDS011;11073;48.586;12.066;2022-12-07T13:23:18;22.53;;;11.80;;
21820;SDS011;11073;48.586;12.066;2022-12-07T13:25:51;13.93;;;8.63;;
21820;SDS011;11073;48.586;12.066;2022-12-07T13:28:23;9.80;;;7.20;;
21820;SDS011;11073;48.586;12.066;2022-12-07T13:31:04;10.27;;;7.50;;
21820;SDS011;11073;48.586;12.066;2022-12-07T13:33:42;10.40;;;7.50;;
21820;SDS011;11073;48.586;12.066;2022-12-07T13:36:14;9.87;;;7.03;;
21820;SDS011;11073;48.586;12.066;2022-12-07T13:38:49;9.13;;;7.10;;
21820;SDS011;11073;48.586;12.066;2022-12-07T13:41:22;9.33;;;6.57;;
21820;SDS011;11073;48.586;12.066;2022-12-07T13:43:55;10.03;;;7.30;;
21820;SDS011;11073;48.586;12.066;2022-12-07T13:46:33;8.77;;;6.83;;
21820;SDS011;11073;48.586;12.066;2022-12-07T13:49:18;10.10;;;6.53;;
21820;SDS011;11073;48.586;12.066;2022-12-07T13:51:49;11.40;;;7.17;;
21820;SDS011;11073;48.586;12.066;2022-12-07T13:54:19;9.13;;;6.27;;
21820;SDS011;11073;48.586;12.066;2022-12-07T13:56:49;12.40;;;8.17;;
21820;SDS011;11073;48.586;12.066;2022-12-07T13:59:20;11.17;;;7.53;;
21820;SDS011;11073;48.586;12.066;2022-12-07T14:01:53;13.53;;;9.13;;
21820;SDS011;11073;48.586;12.066;2022-12-07T14:04:30;10.37;;;7.40;;
21820;SDS011;11073;48.586;12.066;2022-12-07T14:07:01;10.57;;;7.30;;
21820;SDS011;11073;48.586;12.066;2022-12-07T14:09:54;11.83;;;7.20;;
21820;SDS011;11073;48.586;12.066;2022-12-07T14:12:25;11.53;;;7.30;;
21820;SDS011;11073;48.586;12.066;2022-12-07T14:14:54;8.37;;;6.07;;
21820;SDS011;11073;48.586;12.066;2022-12-07T14:17:26;9.93;;;6.07;;
21820;SDS011;11073;48.586;12.066;2022-12-07T14:19:56;10.47;;;7.57;;
21820;SDS011;11073;48.586;12.066;2022-12-07T14:22:28;15.83;;;9.33;;
21820;SDS011;11073;48.586;12.066;2022-12-07T14:25:14;13.27;;;9.23;;
21820;SDS011;11073;48.586;12.066;2022-12-07T14:27:49;10.17;;;7.53;;
21820;SDS011;11073;48.586;12.066;2022-12-07T14:30:23;9.30;;;6.20;;
21820;SDS011;11073;48.586;12.066;2022-12-07T14:32:55;9.93;;;7.17;;
21820;SDS011;11073;48.586;12.066;2022-12-07T14:35:27;12.57;;;7.63;;
21820;SDS011;11073;48.586;12.066;2022-12-07T14:37:57;10.10;;;7.37;;
21820;SDS011;11073;48.586;12.066;2022-12-07T14:40:27;11.57;;;7.57;;
21820;SDS011;11073;48.586;12.066;2022-12-07T14:42:58;12.73;;;7.67;;
21820;SDS011;11073;48.586;12.066;2022-12-07T14:45:29;10.43;;;7.43;;
21820;SDS011;11073;48.586;12.066;2022-12-07T14:48:00;10.70;;;7.47;;
21820;SDS011;11073;48.586;12.066;2022-12-07T14:50:49;16.20;;;10.63;;
21820;SDS011;11073;48.586;12.066;2022-12-07T14:53:41;16.77;;;10.53;;
21820;SDS011;11073;48.586;12.066;2022-12-07T14:56:21;17.10;;;10.60;;
21820;SDS011;11073;48.586;12.066;2022-12-07T14:58:50;16.13;;;10.10;;
21820;SDS011;11073;48.586;12.066;2022-12-07T15:01:19;17.97;;;10.83;;
21820;SDS011;11073;48.586;12.066;2022-12-07T15:03:48;15.77;;;10.97;;
21820;SDS011;11073;48.586;12.066;2022-12-07T15:06:17;12.77;;;9.60;;
21820;SDS011;11073;48.586;12.066;2022-12-07T15:08:46;10.73;;;7.80;;
21820;SDS011;11073;48.586;12.066;2022-12-07T15:11:15;11.87;;;8.33;;
21820;SDS011;11073;48.586;12.066;2022-12-07T15:13:45;13.23;;;7.50;;
21820;SDS011;11073;48.586;12.066;2022-12-07T15:16:31;10.17;;;7.57;;
21820;SDS011;11073;48.586;12.066;2022-12-07T15:19:22;12.07;;;8.50;;
21820;SDS011;11073;48.586;12.066;2022-12-07T15:21:54;12.90;;;9.20;;
21820;SDS011;11073;48.586;12.066;2022-12-07T15:24:24;14.20;;;9.70;;
21820;SDS011;11073;48.586;12.066;2022-12-07T15:26:52;13.60;;;9.10;;